Terminal Aerodrome Forecast
Issued by NWS

Home | Current Version | Previous Version | Text Only | Print | Product List | Glossary On
Versions: 1 2 3 4 5 6 7 8 9 10 11 12 13
000
FTUS44 KOUN 251120
TAFPNC
TAF
KPNC 251120Z 2512/2612 17004KT P6SM VCTS BKN080CB BKN100 OVC150
      TEMPO 2512/2514 6SM -TSRA
     FM251400 18009KT P6SM SCT080 SCT150 BKN200
     FM252300 16008KT P6SM VCTS SCT080CB SCT250 PROB30 2523/2602 5SM
      -TSRA BKN070CB=

USA.gov is the U.S. government's official web portal to all federal, state and local government web resources and services.